sensor_id;sensor_type;location;lat;lon;timestamp;pressure;altitude;pressure_sealevel;temperature;humidity
71195;BME280;58908;51.426;7.714;2022-09-09T00:06:43;99105.78;;;16.55;87.27
71195;BME280;58908;51.426;7.714;2022-09-09T00:09:11;99093.47;;;16.44;87.03
71195;BME280;58908;51.426;7.714;2022-09-09T00:11:41;99106.75;;;16.35;88.37
71195;BME280;58908;51.426;7.714;2022-09-09T00:14:13;99103.53;;;16.31;89.30
71195;BME280;58908;51.426;7.714;2022-09-09T00:16:41;99096.53;;;16.30;88.93
71195;BME280;58908;51.426;7.714;2022-09-09T00:19:15;99100.16;;;16.29;89.16
71195;BME280;58908;51.426;7.714;2022-09-09T00:24:32;99096.38;;;16.22;89.76
71195;BME280;58908;51.426;7.714;2022-09-09T00:27:04;99098.47;;;16.19;90.06
71195;BME280;58908;51.426;7.714;2022-09-09T00:29:35;99093.28;;;16.17;89.76
71195;BME280;58908;51.426;7.714;2022-09-09T00:32:12;99092.84;;;16.12;90.42
71195;BME280;58908;51.426;7.714;2022-09-09T00:34:46;99084.03;;;16.12;89.60
71195;BME280;58908;51.426;7.714;2022-09-09T00:37:11;99078.00;;;16.10;90.30
71195;BME280;58908;51.426;7.714;2022-09-09T00:39:38;99076.88;;;16.03;90.14
71195;BME280;58908;51.426;7.714;2022-09-09T00:42:13;99086.38;;;15.96;89.79
71195;BME280;58908;51.426;7.714;2022-09-09T00:44:39;99090.59;;;15.89;91.05
71195;BME280;58908;51.426;7.714;2022-09-09T00:49:54;99091.53;;;15.88;91.85
71195;BME280;58908;51.426;7.714;2022-09-09T00:52:34;99084.41;;;15.88;90.75
71195;BME280;58908;51.426;7.714;2022-09-09T00:55:11;99082.84;;;15.86;91.32
71195;BME280;58908;51.426;7.714;2022-09-09T00:57:40;99072.34;;;15.75;91.17
71195;BME280;58908;51.426;7.714;2022-09-09T01:03:30;99077.06;;;15.62;91.01
71195;BME280;58908;51.426;7.714;2022-09-09T01:06:18;99079.53;;;15.54;92.26
71195;BME280;58908;51.426;7.714;2022-09-09T01:11:24;99081.56;;;15.31;92.92
71195;BME280;58908;51.426;7.714;2022-09-09T01:13:54;99088.34;;;15.24;93.54
71195;BME280;58908;51.426;7.714;2022-09-09T01:16:24;99080.66;;;15.21;94.59
71195;BME280;58908;51.426;7.714;2022-09-09T01:18:51;99076.97;;;15.13;94.34
71195;BME280;58908;51.426;7.714;2022-09-09T01:26:18;99077.06;;;15.02;94.88
71195;BME280;58908;51.426;7.714;2022-09-09T01:28:46;99075.69;;;15.07;94.72
71195;BME280;58908;51.426;7.714;2022-09-09T01:31:14;99069.53;;;15.07;94.66
71195;BME280;58908;51.426;7.714;2022-09-09T01:33:41;99078.34;;;15.07;94.43
71195;BME280;58908;51.426;7.714;2022-09-09T01:36:11;99075.22;;;15.02;94.12
71195;BME280;58908;51.426;7.714;2022-09-09T01:38:37;99075.03;;;15.15;93.05
71195;BME280;58908;51.426;7.714;2022-09-09T01:41:02;99076.97;;;15.13;94.25
71195;BME280;58908;51.426;7.714;2022-09-09T01:43:28;99072.75;;;15.10;93.49
71195;BME280;58908;51.426;7.714;2022-09-09T01:45:54;99076.41;;;15.09;93.71
71195;BME280;58908;51.426;7.714;2022-09-09T01:48:20;99069.97;;;15.12;94.10
71195;BME280;58908;51.426;7.714;2022-09-09T01:50:46;99065.41;;;15.23;92.76
71195;BME280;58908;51.426;7.714;2022-09-09T01:53:11;99067.78;;;15.26;93.28
71195;BME280;58908;51.426;7.714;2022-09-09T01:55:38;99064.78;;;15.31;92.82
71195;BME280;58908;51.426;7.714;2022-09-09T02:00:35;99066.22;;;15.44;91.80
71195;BME280;58908;51.426;7.714;2022-09-09T02:03:13;99056.44;;;15.45;92.24
71195;BME280;58908;51.426;7.714;2022-09-09T02:06:00;99057.84;;;15.49;91.55
71195;BME280;58908;51.426;7.714;2022-09-09T02:08:47;99059.13;;;15.54;90.87
71195;BME280;58908;51.426;7.714;2022-09-09T02:13:39;99058.03;;;15.57;91.06
71195;BME280;58908;51.426;7.714;2022-09-09T02:16:07;99060.00;;;15.64;90.31
71195;BME280;58908;51.426;7.714;2022-09-09T02:18:35;99060.13;;;15.63;91.05
71195;BME280;58908;51.426;7.714;2022-09-09T02:21:00;99062.50;;;15.66;90.53
71195;BME280;58908;51.426;7.714;2022-09-09T02:23:27;99065.91;;;15.68;90.24
71195;BME280;58908;51.426;7.714;2022-09-09T02:25:53;99071.34;;;15.66;90.30
71195;BME280;58908;51.426;7.714;2022-09-09T02:28:20;99076.38;;;15.69;90.34
71195;BME280;58908;51.426;7.714;2022-09-09T02:30:48;99073.13;;;15.66;90.31
71195;BME280;58908;51.426;7.714;2022-09-09T02:33:20;99071.88;;;15.60;90.89
71195;BME280;58908;51.426;7.714;2022-09-09T02:35:47;99069.88;;;15.53;91.72
71195;BME280;58908;51.426;7.714;2022-09-09T02:38:13;99069.59;;;15.46;92.01
71195;BME280;58908;51.426;7.714;2022-09-09T02:40:39;99068.31;;;15.41;92.15
71195;BME280;58908;51.426;7.714;2022-09-09T02:43:05;99063.16;;;15.39;92.21
71195;BME280;58908;51.426;7.714;2022-09-09T02:45:36;99064.25;;;15.37;92.13
71195;BME280;58908;51.426;7.714;2022-09-09T02:50:59;99062.69;;;15.34;92.01
71195;BME280;58908;51.426;7.714;2022-09-09T02:53:30;99065.34;;;15.34;91.78
71195;BME280;58908;51.426;7.714;2022-09-09T02:56:00;99074.94;;;15.26;92.72
71195;BME280;58908;51.426;7.714;2022-09-09T02:58:27;99077.28;;;15.19;92.98
71195;BME280;58908;51.426;7.714;2022-09-09T03:00:53;99067.34;;;15.21;92.78
71195;BME280;58908;51.426;7.714;2022-09-09T03:03:18;99073.78;;;15.19;92.37
71195;BME280;58908;51.426;7.714;2022-09-09T03:05:44;99074.56;;;15.10;93.17
71195;BME280;58908;51.426;7.714;2022-09-09T03:08:10;99068.44;;;15.09;92.89
71195;BME280;58908;51.426;7.714;2022-09-09T03:10:35;99068.16;;;15.12;92.94
71195;BME280;58908;51.426;7.714;2022-09-09T03:13:02;99076.81;;;15.14;92.89
71195;BME280;58908;51.426;7.714;2022-09-09T03:15:27;99077.81;;;15.13;92.63
71195;BME280;58908;51.426;7.714;2022-09-09T03:17:55;99077.81;;;15.13;93.49
71195;BME280;58908;51.426;7.714;2022-09-09T03:20:21;99080.03;;;15.08;93.73
71195;BME280;58908;51.426;7.714;2022-09-09T03:22:46;99083.81;;;15.15;93.18
71195;BME280;58908;51.426;7.714;2022-09-09T03:25:12;99082.00;;;15.16;93.54
71195;BME280;58908;51.426;7.714;2022-09-09T03:27:37;99075.84;;;15.15;93.53
71195;BME280;58908;51.426;7.714;2022-09-09T03:30:02;99076.44;;;15.19;93.39
71195;BME280;58908;51.426;7.714;2022-09-09T03:32:28;99075.34;;;15.21;93.64
71195;BME280;58908;51.426;7.714;2022-09-09T03:34:53;99071.56;;;15.24;93.09
71195;BME280;58908;51.426;7.714;2022-09-09T03:37:19;99072.94;;;15.18;93.36
71195;BME280;58908;51.426;7.714;2022-09-09T03:39:44;99063.00;;;15.11;94.06
71195;BME280;58908;51.426;7.714;2022-09-09T03:42:12;99062.00;;;15.12;93.88
71195;BME280;58908;51.426;7.714;2022-09-09T03:44:39;99068.03;;;15.14;94.37
71195;BME280;58908;51.426;7.714;2022-09-09T03:47:04;99069.97;;;15.12;95.09
71195;BME280;58908;51.426;7.714;2022-09-09T03:49:31;99074.31;;;15.13;96.89
71195;BME280;58908;51.426;7.714;2022-09-09T03:51:56;99065.31;;;15.04;98.11
71195;BME280;58908;51.426;7.714;2022-09-09T03:54:23;99071.16;;;14.98;98.80
71195;BME280;58908;51.426;7.714;2022-09-09T03:56:48;99070.84;;;14.92;99.99
71195;BME280;58908;51.426;7.714;2022-09-09T03:59:13;99068.59;;;14.87;100.00
71195;BME280;58908;51.426;7.714;2022-09-09T04:01:39;99075.13;;;14.83;99.45
71195;BME280;58908;51.426;7.714;2022-09-09T04:04:04;99073.44;;;14.82;100.00
71195;BME280;58908;51.426;7.714;2022-09-09T04:06:30;99073.25;;;14.74;100.00
71195;BME280;58908;51.426;7.714;2022-09-09T04:08:55;99076.28;;;14.70;100.00
71195;BME280;58908;51.426;7.714;2022-09-09T04:11:20;99071.00;;;14.70;100.00
71195;BME280;58908;51.426;7.714;2022-09-09T04:13:46;99076.28;;;14.70;100.00
71195;BME280;58908;51.426;7.714;2022-09-09T04:16:11;99069.91;;;14.72;100.00
71195;BME280;58908;51.426;7.714;2022-09-09T04:18:40;99067.25;;;14.72;100.00
71195;BME280;58908;51.426;7.714;2022-09-09T04:21:05;99066.50;;;14.70;100.00
71195;BME280;58908;51.426;7.714;2022-09-09T04:23:31;99073.63;;;14.70;100.00
71195;BME280;58908;51.426;7.714;2022-09-09T04:25:58;99074.63;;;14.69;100.00
71195;BME280;58908;51.426;7.714;2022-09-09T04:28:24;99074.94;;;14.75;100.00
71195;BME280;58908;51.426;7.714;2022-09-09T04:30:50;99080.56;;;14.82;99.92
71195;BME280;58908;51.426;7.714;2022-09-09T04:33:16;99076.81;;;14.84;99.68
71195;BME280;58908;51.426;7.714;2022-09-09T04:35:46;99071.34;;;14.86;99.54
71195;BME280;58908;51.426;7.714;2022-09-09T04:38:12;99070.84;;;14.92;99.53
71195;BME280;58908;51.426;7.714;2022-09-09T04:40:37;99077.56;;;14.96;98.71
71195;BME280;58908;51.426;7.714;2022-09-09T04:43:05;99081.09;;;14.96;99.01
71195;BME280;58908;51.426;7.714;2022-09-09T04:45:30;99073.44;;;15.03;97.83
71195;BME280;58908;51.426;7.714;2022-09-09T04:47:55;99073.53;;;15.01;98.22
71195;BME280;58908;51.426;7.714;2022-09-09T04:50:21;99071.88;;;15.00;97.99
71195;BME280;58908;51.426;7.714;2022-09-09T04:52:46;99076.47;;;14.98;98.66
71195;BME280;58908;51.426;7.714;2022-09-09T04:55:11;99079.31;;;15.06;97.50
71195;BME280;58908;51.426;7.714;2022-09-09T04:57:37;99078.59;;;15.04;98.25
71195;BME280;58908;51.426;7.714;2022-09-09T05:00:03;99075.09;;;15.04;98.00
71195;BME280;58908;51.426;7.714;2022-09-09T05:02:28;99080.28;;;15.05;97.68
71195;BME280;58908;51.426;7.714;2022-09-09T05:04:55;99077.38;;;15.08;97.55
71195;BME280;58908;51.426;7.714;2022-09-09T05:07:21;99070.09;;;15.10;96.92
71195;BME280;58908;51.426;7.714;2022-09-09T05:09:46;99076.59;;;15.17;96.03
71195;BME280;58908;51.426;7.714;2022-09-09T05:12:13;99074.22;;;15.24;95.68
71195;BME280;58908;51.426;7.714;2022-09-09T05:14:38;99079.97;;;15.29;94.83
71195;BME280;58908;51.426;7.714;2022-09-09T05:17:03;99078.06;;;15.31;95.04
71195;BME280;58908;51.426;7.714;2022-09-09T05:19:29;99076.25;;;15.31;94.96
71195;BME280;58908;51.426;7.714;2022-09-09T05:21:55;99078.19;;;15.29;94.98
71195;BME280;58908;51.426;7.714;2022-09-09T05:24:20;99072.34;;;15.35;93.75
71195;BME280;58908;51.426;7.714;2022-09-09T05:26:47;99079.34;;;15.36;94.46
71195;BME280;58908;51.426;7.714;2022-09-09T05:29:13;99077.38;;;15.38;94.06
71195;BME280;58908;51.426;7.714;2022-09-09T05:31:38;99079.22;;;15.38;94.08
71195;BME280;58908;51.426;7.714;2022-09-09T05:34:04;99076.56;;;15.38;93.42
71195;BME280;58908;51.426;7.714;2022-09-09T05:36:29;99075.69;;;15.37;93.19
71195;BME280;58908;51.426;7.714;2022-09-09T05:38:54;99074.59;;;15.40;93.14
71195;BME280;58908;51.426;7.714;2022-09-09T05:41:20;99078.13;;;15.40;93.81
71195;BME280;58908;51.426;7.714;2022-09-09T05:43:45;99074.72;;;15.38;93.62
71195;BME280;58908;51.426;7.714;2022-09-09T05:46:12;99079.91;;;15.40;93.81
71195;BME280;58908;51.426;7.714;2022-09-09T05:48:39;99075.59;;;15.39;93.81
71195;BME280;58908;51.426;7.714;2022-09-09T05:51:05;99078.94;;;15.41;94.01
71195;BME280;58908;51.426;7.714;2022-09-09T05:53:31;99077.84;;;15.43;92.77
71195;BME280;58908;51.426;7.714;2022-09-09T05:56:11;99080.09;;;15.48;92.52
71195;BME280;58908;51.426;7.714;2022-09-09T05:58:36;99078.72;;;15.53;92.36
71195;BME280;58908;51.426;7.714;2022-09-09T06:01:06;99079.28;;;15.57;91.76
71195;BME280;58908;51.426;7.714;2022-09-09T06:03:33;99078.44;;;15.56;92.92
71195;BME280;58908;51.426;7.714;2022-09-09T06:05:59;99086.13;;;15.59;92.42
71195;BME280;58908;51.426;7.714;2022-09-09T06:08:24;99082.50;;;15.60;91.92
71195;BME280;58908;51.426;7.714;2022-09-09T06:10:50;99081.41;;;15.63;91.86
71195;BME280;58908;51.426;7.714;2022-09-09T06:13:16;99090.81;;;15.67;91.63
71195;BME280;58908;51.426;7.714;2022-09-09T06:15:49;99084.66;;;15.76;91.42
71195;BME280;58908;51.426;7.714;2022-09-09T06:18:17;99098.13;;;15.84;90.38
71195;BME280;58908;51.426;7.714;2022-09-09T06:20:52;99106.53;;;15.89;91.24
71195;BME280;58908;51.426;7.714;2022-09-09T06:23:18;99097.44;;;15.91;90.39
71195;BME280;58908;51.426;7.714;2022-09-09T06:25:45;99098.84;;;15.95;90.87
71195;BME280;58908;51.426;7.714;2022-09-09T06:28:10;99097.88;;;15.96;89.96
71195;BME280;58908;51.426;7.714;2022-09-09T06:30:35;99093.25;;;15.98;89.61
71195;BME280;58908;51.426;7.714;2022-09-09T06:33:01;99090.44;;;15.90;90.20
71195;BME280;58908;51.426;7.714;2022-09-09T06:35:26;99087.19;;;15.87;89.88
71195;BME280;58908;51.426;7.714;2022-09-09T06:37:51;99090.59;;;15.89;89.93
71195;BME280;58908;51.426;7.714;2022-09-09T06:40:17;99091.00;;;15.84;90.12
71195;BME280;58908;51.426;7.714;2022-09-09T06:42:42;99082.28;;;15.82;90.46
71195;BME280;58908;51.426;7.714;2022-09-09T06:45:07;99081.47;;;15.82;90.87
71195;BME280;58908;51.426;7.714;2022-09-09T06:47:33;99082.03;;;15.85;89.63
71195;BME280;58908;51.426;7.714;2022-09-09T06:49:59;99087.34;;;15.85;89.61
71195;BME280;58908;51.426;7.714;2022-09-09T06:52:24;99084.69;;;15.85;90.29
71195;BME280;58908;51.426;7.714;2022-09-09T06:54:50;99092.09;;;15.91;89.75
71195;BME280;58908;51.426;7.714;2022-09-09T06:57:15;99100.94;;;16.01;88.41
71195;BME280;58908;51.426;7.714;2022-09-09T06:59:40;99091.47;;;16.08;87.94
71195;BME280;58908;51.426;7.714;2022-09-09T07:02:08;99105.75;;;16.17;87.85
71195;BME280;58908;51.426;7.714;2022-09-09T07:04:33;99111.22;;;16.25;88.27
71195;BME280;58908;51.426;7.714;2022-09-09T07:06:58;99097.91;;;16.25;88.65
71195;BME280;58908;51.426;7.714;2022-09-09T07:09:24;99103.66;;;16.11;88.74
71195;BME280;58908;51.426;7.714;2022-09-09T07:11:50;99107.41;;;16.08;89.19
71195;BME280;58908;51.426;7.714;2022-09-09T07:14:18;99094.78;;;15.91;91.29
71195;BME280;58908;51.426;7.714;2022-09-09T07:16:43;99100.19;;;15.80;94.14
71195;BME280;58908;51.426;7.714;2022-09-09T07:19:10;99109.53;;;15.56;97.05
71195;BME280;58908;51.426;7.714;2022-09-09T07:21:36;99113.75;;;15.38;98.11
71195;BME280;58908;51.426;7.714;2022-09-09T07:24:01;99112.13;;;15.26;100.00
71195;BME280;58908;51.426;7.714;2022-09-09T07:26:28;99113.91;;;15.16;100.00
71195;BME280;58908;51.426;7.714;2022-09-09T07:28:53;99116.56;;;15.16;100.00
71195;BME280;58908;51.426;7.714;2022-09-09T07:31:23;99112.53;;;15.21;100.00
71195;BME280;58908;51.426;7.714;2022-09-09T07:33:49;99118.50;;;15.34;100.00
71195;BME280;58908;51.426;7.714;2022-09-09T07:36:18;99116.81;;;15.63;98.74
71195;BME280;58908;51.426;7.714;2022-09-09T07:38:47;99113.59;;;15.69;97.68
71195;BME280;58908;51.426;7.714;2022-09-09T07:41:35;99115.22;;;15.91;96.69
71195;BME280;58908;51.426;7.714;2022-09-09T07:43:59;99118.41;;;15.85;95.93
71195;BME280;58908;51.426;7.714;2022-09-09T07:46:25;99108.88;;;15.82;96.95
71195;BME280;58908;51.426;7.714;2022-09-09T07:48:52;99114.53;;;16.08;94.64
71195;BME280;58908;51.426;7.714;2022-09-09T07:51:19;99115.41;;;16.18;93.21
71195;BME280;58908;51.426;7.714;2022-09-09T07:53:47;99121.44;;;16.20;94.01
71195;BME280;58908;51.426;7.714;2022-09-09T07:56:13;99122.69;;;16.16;93.25
71195;BME280;58908;51.426;7.714;2022-09-09T07:58:39;99124.88;;;16.50;92.03
71195;BME280;58908;51.426;7.714;2022-09-09T08:01:12;99124.97;;;16.96;88.48
71195;BME280;58908;51.426;7.714;2022-09-09T08:03:37;99127.09;;;16.83;88.16
71195;BME280;58908;51.426;7.714;2022-09-09T08:06:03;99124.97;;;16.87;87.39
71195;BME280;58908;51.426;7.714;2022-09-09T08:08:29;99122.38;;;17.23;86.70
71195;BME280;58908;51.426;7.714;2022-09-09T08:11:00;99126.59;;;17.35;84.87
71195;BME280;58908;51.426;7.714;2022-09-09T08:13:26;99120.03;;;17.66;84.31
71195;BME280;58908;51.426;7.714;2022-09-09T08:15:52;99120.25;;;17.45;84.21
71195;BME280;58908;51.426;7.714;2022-09-09T08:18:17;99118.19;;;17.30;83.58
71195;BME280;58908;51.426;7.714;2022-09-09T08:20:42;99120.53;;;17.33;85.61
71195;BME280;58908;51.426;7.714;2022-09-09T08:23:07;99121.00;;;17.19;84.43
71195;BME280;58908;51.426;7.714;2022-09-09T08:25:32;99125.88;;;17.33;85.08
71195;BME280;58908;51.426;7.714;2022-09-09T08:27:59;99124.19;;;17.51;84.97
71195;BME280;58908;51.426;7.714;2022-09-09T08:30:24;99119.34;;;18.18;80.84
71195;BME280;58908;51.426;7.714;2022-09-09T08:32:49;99120.59;;;18.76;77.01
71195;BME280;58908;51.426;7.714;2022-09-09T08:35:16;99124.19;;;18.32;76.76
71195;BME280;58908;51.426;7.714;2022-09-09T08:37:42;99129.59;;;18.13;78.03
71195;BME280;58908;51.426;7.714;2022-09-09T08:40:09;99118.00;;;18.49;76.54
71195;BME280;58908;51.426;7.714;2022-09-09T08:42:41;99121.47;;;19.02;73.01
71195;BME280;58908;51.426;7.714;2022-09-09T08:47:47;99118.59;;;21.26;65.96
71195;BME280;58908;51.426;7.714;2022-09-09T08:50:34;99115.84;;;21.66;63.04
71195;BME280;58908;51.426;7.714;2022-09-09T08:55:45;99119.47;;;21.11;64.68
71195;BME280;58908;51.426;7.714;2022-09-09T09:03:32;99125.97;;;22.63;59.26
71195;BME280;58908;51.426;7.714;2022-09-09T09:08:50;99124.44;;;22.91;59.42
71195;BME280;58908;51.426;7.714;2022-09-09T09:11:16;99118.84;;;23.81;56.13
71195;BME280;58908;51.426;7.714;2022-09-09T09:13:46;99124.31;;;22.85;55.95
71195;BME280;58908;51.426;7.714;2022-09-09T09:16:17;99121.00;;;23.20;54.19
71195;BME280;58908;51.426;7.714;2022-09-09T09:18:44;99126.69;;;22.80;55.89
71195;BME280;58908;51.426;7.714;2022-09-09T09:21:16;99131.53;;;21.23;61.31
71195;BME280;58908;51.426;7.714;2022-09-09T09:23:45;99128.00;;;21.30;63.45
71195;BME280;58908;51.426;7.714;2022-09-09T09:26:12;99121.81;;;20.90;62.65
71195;BME280;58908;51.426;7.714;2022-09-09T09:28:37;99127.66;;;21.25;60.69
71195;BME280;58908;51.426;7.714;2022-09-09T09:31:11;99125.16;;;21.94;57.45
71195;BME280;58908;51.426;7.714;2022-09-09T09:33:47;99123.34;;;22.55;57.36
71195;BME280;58908;51.426;7.714;2022-09-09T09:36:13;99127.97;;;21.38;59.58
71195;BME280;58908;51.426;7.714;2022-09-09T09:38:50;99124.25;;;20.59;62.33
71195;BME280;58908;51.426;7.714;2022-09-09T09:41:16;99134.94;;;19.94;62.75
71195;BME280;58908;51.426;7.714;2022-09-09T09:43:43;99129.38;;;19.87;64.51
71195;BME280;58908;51.426;7.714;2022-09-09T09:46:21;99127.78;;;21.56;58.82
71195;BME280;58908;51.426;7.714;2022-09-09T09:49:04;99114.34;;;22.40;56.05
71195;BME280;58908;51.426;7.714;2022-09-09T09:51:30;99114.03;;;22.35;58.08
71195;BME280;58908;51.426;7.714;2022-09-09T09:54:31;99120.91;;;21.53;59.29
71195;BME280;58908;51.426;7.714;2022-09-09T09:56:48;99133.88;;;20.86;60.21
71195;BME280;58908;51.426;7.714;2022-09-09T10:01:45;99128.00;;;20.90;60.48
71195;BME280;58908;51.426;7.714;2022-09-09T10:06:38;99137.69;;;20.10;61.40
71195;BME280;58908;51.426;7.714;2022-09-09T10:09:18;99135.53;;;20.05;62.03
71195;BME280;58908;51.426;7.714;2022-09-09T10:14:19;99137.72;;;20.83;59.01
71195;BME280;58908;51.426;7.714;2022-09-09T10:19:33;99123.59;;;20.65;60.71
71195;BME280;58908;51.426;7.714;2022-09-09T10:37:37;99115.78;;;21.04;57.83
71195;BME280;58908;51.426;7.714;2022-09-09T10:40:28;99116.28;;;20.99;56.14
71195;BME280;58908;51.426;7.714;2022-09-09T10:43:01;99117.56;;;20.79;55.97
71195;BME280;58908;51.426;7.714;2022-09-09T10:45:32;99107.22;;;21.00;56.47
71195;BME280;58908;51.426;7.714;2022-09-09T10:53:05;99097.00;;;21.04;54.18
71195;BME280;58908;51.426;7.714;2022-09-09T10:55:41;99085.91;;;21.23;54.27
71195;BME280;58908;51.426;7.714;2022-09-09T10:58:09;99090.31;;;20.92;54.95
71195;BME280;58908;51.426;7.714;2022-09-09T11:03:01;99090.59;;;20.49;56.34
71195;BME280;58908;51.426;7.714;2022-09-09T11:05:29;99100.44;;;20.32;57.22
71195;BME280;58908;51.426;7.714;2022-09-09T11:07:58;99112.81;;;20.17;57.60
71195;BME280;58908;51.426;7.714;2022-09-09T11:12:59;99115.56;;;20.00;59.75
71195;BME280;58908;51.426;7.714;2022-09-09T11:15:28;99109.78;;;19.87;59.11
71195;BME280;58908;51.426;7.714;2022-09-09T11:17:58;99114.66;;;19.83;59.59
71195;BME280;58908;51.426;7.714;2022-09-09T11:20:26;99145.00;;;19.66;60.96
71195;BME280;58908;51.426;7.714;2022-09-09T11:22:53;99151.41;;;19.05;68.23
71195;BME280;58908;51.426;7.714;2022-09-09T11:33:39;99136.72;;;19.27;76.46
71195;BME280;58908;51.426;7.714;2022-09-09T11:39:41;99134.69;;;19.79;73.44
71195;BME280;58908;51.426;7.714;2022-09-09T11:41:37;99128.34;;;19.72;70.77
71195;BME280;58908;51.426;7.714;2022-09-09T11:44:12;99125.84;;;19.79;69.47
71195;BME280;58908;51.426;7.714;2022-09-09T11:46:38;99111.44;;;20.05;65.61
71195;BME280;58908;51.426;7.714;2022-09-09T11:49:06;99109.28;;;20.17;65.78
71195;BME280;58908;51.426;7.714;2022-09-09T11:51:47;99107.63;;;20.32;64.15
71195;BME280;58908;51.426;7.714;2022-09-09T11:54:28;99106.16;;;20.45;62.87
71195;BME280;58908;51.426;7.714;2022-09-09T11:56:54;99105.63;;;20.42;61.03
71195;BME280;58908;51.426;7.714;2022-09-09T11:59:20;99100.47;;;20.48;60.37
71195;BME280;58908;51.426;7.714;2022-09-09T12:01:49;99102.28;;;20.40;61.46
71195;BME280;58908;51.426;7.714;2022-09-09T12:06:53;99097.69;;;20.90;59.43
71195;BME280;58908;51.426;7.714;2022-09-09T12:09:25;99098.78;;;20.47;58.51
71195;BME280;58908;51.426;7.714;2022-09-09T12:11:52;99106.13;;;20.37;57.76
71195;BME280;58908;51.426;7.714;2022-09-09T12:14:21;99096.09;;;20.47;59.56
71195;BME280;58908;51.426;7.714;2022-09-09T12:16:47;99099.81;;;20.62;57.50
71195;BME280;58908;51.426;7.714;2022-09-09T12:19:19;99106.19;;;20.53;56.40
71195;BME280;58908;51.426;7.714;2022-09-09T12:24:41;99099.50;;;20.89;55.62
71195;BME280;58908;51.426;7.714;2022-09-09T12:27:28;99098.00;;;20.87;55.72
71195;BME280;58908;51.426;7.714;2022-09-09T12:30:09;99088.75;;;20.81;56.22
71195;BME280;58908;51.426;7.714;2022-09-09T12:32:35;99077.22;;;20.97;55.81
71195;BME280;58908;51.426;7.714;2022-09-09T12:35:03;99082.78;;;20.95;54.01
71195;BME280;58908;51.426;7.714;2022-09-09T12:37:45;99090.09;;;20.69;54.71
71195;BME280;58908;51.426;7.714;2022-09-09T12:42:42;99086.13;;;20.89;54.74
71195;BME280;58908;51.426;7.714;2022-09-09T12:45:17;99082.53;;;21.21;53.90
71195;BME280;58908;51.426;7.714;2022-09-09T12:47:47;99082.31;;;21.46;53.12
71195;BME280;58908;51.426;7.714;2022-09-09T12:50:17;99080.44;;;21.71;52.85
71195;BME280;58908;51.426;7.714;2022-09-09T12:52:43;99079.84;;;21.37;53.10
71195;BME280;58908;51.426;7.714;2022-09-09T12:55:18;99075.66;;;21.26;54.10
71195;BME280;58908;51.426;7.714;2022-09-09T12:57:44;99082.78;;;20.95;54.52
71195;BME280;58908;51.426;7.714;2022-09-09T13:00:14;99066.53;;;20.89;55.55
71195;BME280;58908;51.426;7.714;2022-09-09T13:02:50;99076.84;;;21.24;55.35
71195;BME280;58908;51.426;7.714;2022-09-09T13:05:17;99066.84;;;21.72;53.03
71195;BME280;58908;51.426;7.714;2022-09-09T13:07:43;99063.53;;;22.23;52.89
71195;BME280;58908;51.426;7.714;2022-09-09T13:10:11;99060.25;;;22.13;51.33
71195;BME280;58908;51.426;7.714;2022-09-09T13:12:37;99072.53;;;21.69;52.13
71195;BME280;58908;51.426;7.714;2022-09-09T13:15:03;99072.59;;;21.45;52.61
71195;BME280;58908;51.426;7.714;2022-09-09T13:17:28;99062.88;;;21.52;53.71
71195;BME280;58908;51.426;7.714;2022-09-09T13:19:54;99065.56;;;21.44;52.99
71195;BME280;58908;51.426;7.714;2022-09-09T13:22:29;99057.09;;;21.71;52.82
71195;BME280;58908;51.426;7.714;2022-09-09T13:25:17;99050.41;;;21.59;51.66
71195;BME280;58908;51.426;7.714;2022-09-09T13:27:51;99062.44;;;21.17;52.48
71195;BME280;58908;51.426;7.714;2022-09-09T13:35:34;99057.47;;;20.90;52.80
71195;BME280;58908;51.426;7.714;2022-09-09T13:38:06;99057.44;;;21.06;52.45
71195;BME280;58908;51.426;7.714;2022-09-09T13:40:32;99052.38;;;21.19;52.49
71195;BME280;58908;51.426;7.714;2022-09-09T13:42:57;99051.72;;;21.09;53.19
71195;BME280;58908;51.426;7.714;2022-09-09T13:45:24;99063.16;;;21.03;54.20
71195;BME280;58908;51.426;7.714;2022-09-09T13:47:54;99067.00;;;21.00;53.10
71195;BME280;58908;51.426;7.714;2022-09-09T13:50:29;99057.41;;;20.66;54.12
71195;BME280;58908;51.426;7.714;2022-09-09T13:52:55;99060.63;;;20.93;54.81
71195;BME280;58908;51.426;7.714;2022-09-09T13:55:23;99068.50;;;20.79;53.68
71195;BME280;58908;51.426;7.714;2022-09-09T13:57:56;99060.78;;;20.60;53.94
71195;BME280;58908;51.426;7.714;2022-09-09T14:00:21;99051.75;;;20.69;54.20
71195;BME280;58908;51.426;7.714;2022-09-09T14:02:47;99052.91;;;20.74;54.05
71195;BME280;58908;51.426;7.714;2022-09-09T14:05:13;99060.66;;;20.85;54.73
71195;BME280;58908;51.426;7.714;2022-09-09T14:07:38;99059.97;;;20.99;52.97
71195;BME280;58908;51.426;7.714;2022-09-09T14:10:05;99049.84;;;21.25;52.43
71195;BME280;58908;51.426;7.714;2022-09-09T14:12:31;99053.59;;;21.00;52.59
71195;BME280;58908;51.426;7.714;2022-09-09T14:14:56;99053.91;;;20.65;53.90
71195;BME280;58908;51.426;7.714;2022-09-09T14:17:21;99047.38;;;20.52;54.09
71195;BME280;58908;51.426;7.714;2022-09-09T14:19:47;99053.06;;;20.49;55.12
71195;BME280;58908;51.426;7.714;2022-09-09T14:22:12;99076.50;;;20.23;58.17
71195;BME280;58908;51.426;7.714;2022-09-09T14:24:37;99078.81;;;19.43;66.66
71195;BME280;58908;51.426;7.714;2022-09-09T14:27:02;99081.44;;;19.10;72.12
71195;BME280;58908;51.426;7.714;2022-09-09T14:29:27;99067.00;;;19.03;70.29
71195;BME280;58908;51.426;7.714;2022-09-09T14:31:53;99064.06;;;19.14;69.64
71195;BME280;58908;51.426;7.714;2022-09-09T14:34:18;99063.94;;;19.15;69.74
71195;BME280;58908;51.426;7.714;2022-09-09T14:36:43;99051.38;;;19.16;68.54
71195;BME280;58908;51.426;7.714;2022-09-09T14:39:10;99055.31;;;19.04;67.56
71195;BME280;58908;51.426;7.714;2022-09-09T14:41:35;99062.13;;;18.98;69.13
71195;BME280;58908;51.426;7.714;2022-09-09T14:44:00;99065.94;;;18.70;68.32
71195;BME280;58908;51.426;7.714;2022-09-09T14:46:26;99068.72;;;18.61;69.14
71195;BME280;58908;51.426;7.714;2022-09-09T14:48:51;99070.16;;;18.55;69.29